Time;durP1;ratioP1;P1;durP2;ratioP2;P2;SDS_P1;SDS_P2;PMS_P1;PMS_P2;Temp;Humidity;BMP_temperature;BMP_pressure;BME280_temperature;BME280_humidity;BME280_pressure;Samples;Min_cycle;Max_cycle;Signal;HPM_P1;HPM_P2
2022/03/30 00:00:26;;;;;;;28.80;14.88;;;6.20;99.90;;;;;;5003411;28;20393;-69
2022/03/30 00:02:51;;;;;;;26.13;16.27;;;6.20;99.90;;;;;;4991170;28;20092;-69
2022/03/30 00:05:17;;;;;;;29.60;16.27;;;6.20;99.90;;;;;;4993145;28;20049;-69
2022/03/30 00:07:43;;;;;;;32.83;15.63;;;6.20;99.90;;;;;;5002444;28;20061;-69
2022/03/30 00:10:08;;;;;;;29.83;17.17;;;6.20;99.90;;;;;;5005620;28;20049;-69
2022/03/30 00:12:34;;;;;;;27.35;15.10;;;6.20;99.90;;;;;;5022940;28;20593;-69
2022/03/30 00:15:00;;;;;;;27.90;16.38;;;6.10;99.90;;;;;;5002741;28;20516;-69
2022/03/30 00:17:26;;;;;;;26.55;17.30;;;6.10;99.90;;;;;;4993215;28;20135;-69
2022/03/30 00:19:52;;;;;;;28.58;17.40;;;6.20;99.90;;;;;;5006498;28;20042;-69
2022/03/30 00:22:18;;;;;;;30.20;17.38;;;6.20;99.90;;;;;;5002320;28;20136;-69
2022/03/30 00:24:44;;;;;;;25.95;15.93;;;6.20;99.90;;;;;;4991657;28;20500;-69
2022/03/30 00:27:11;;;;;;;28.65;15.88;;;6.20;99.90;;;;;;4995860;28;20540;-69
2022/03/30 00:29:37;;;;;;;24.45;16.27;;;6.20;99.90;;;;;;4998671;28;20174;-69
2022/03/30 00:32:03;;;;;;;25.90;15.93;;;6.10;99.90;;;;;;4995048;28;20854;-69
2022/03/30 00:34:31;;;;;;;26.35;16.08;;;6.00;99.90;;;;;;4999016;28;20054;-69
2022/03/30 00:36:56;;;;;;;27.98;17.58;;;6.00;99.90;;;;;;4995551;28;20048;-69
2022/03/30 00:39:22;;;;;;;29.58;17.00;;;6.00;99.90;;;;;;5012309;28;20038;-69
2022/03/30 00:41:48;;;;;;;26.27;15.60;;;6.00;99.90;;;;;;5010348;28;20440;-69
2022/03/30 00:44:14;;;;;;;29.55;17.23;;;6.00;99.90;;;;;;5006185;28;20077;-69
2022/03/30 00:46:44;;;;;;;28.52;16.50;;;6.00;99.90;;;;;;4992866;28;20405;-69
2022/03/30 00:49:11;;;;;;;29.15;17.42;;;6.00;99.90;;;;;;5002026;28;20060;-69
2022/03/30 00:51:38;;;;;;;28.50;17.07;;;5.90;99.90;;;;;;5011843;28;20042;-69
2022/03/30 00:54:04;;;;;;;30.52;16.60;;;5.90;99.90;;;;;;4997378;28;20069;-69
2022/03/30 00:56:32;;;;;;;33.25;16.80;;;5.90;99.90;;;;;;4995115;28;20042;-69
2022/03/30 00:59:05;;;;;;;24.92;17.10;;;5.90;99.90;;;;;;4993598;28;20750;-69
2022/03/30 01:01:30;;;;;;;31.95;17.23;;;5.90;99.90;;;;;;5001704;28;20045;-69
2022/03/30 01:03:56;;;;;;;30.70;17.42;;;5.80;99.90;;;;;;4992365;28;20401;-69
2022/03/30 01:06:22;;;;;;;32.85;17.02;;;5.80;99.90;;;;;;4994272;28;20042;-69
2022/03/30 01:08:48;;;;;;;30.23;16.40;;;5.80;99.90;;;;;;5012082;28;20042;-69
2022/03/30 01:11:15;;;;;;;26.88;16.45;;;5.80;99.90;;;;;;5011455;28;20077;-69
2022/03/30 01:13:41;;;;;;;26.70;16.77;;;5.80;99.90;;;;;;4996844;28;20089;-69
2022/03/30 01:16:07;;;;;;;32.72;17.50;;;5.70;99.90;;;;;;4994838;28;20045;-69
2022/03/30 01:18:40;;;;;;;28.95;17.67;;;5.70;99.90;;;;;;5001161;28;20054;-69
2022/03/30 01:21:08;;;;;;;26.70;16.85;;;5.70;99.90;;;;;;5027024;28;20046;-69
2022/03/30 01:23:34;;;;;;;27.02;15.65;;;5.70;99.90;;;;;;5030680;28;20168;-69
2022/03/30 01:26:00;;;;;;;27.70;17.17;;;5.70;99.90;;;;;;5000576;28;20047;-69
2022/03/30 01:28:28;;;;;;;29.27;17.13;;;5.60;99.90;;;;;;5010000;28;20053;-69
2022/03/30 01:33:44;;;;;;;30.27;17.83;;;5.60;99.90;;;;;;5007860;28;20046;-69
2022/03/30 01:36:10;;;;;;;29.48;18.92;;;5.60;99.90;;;;;;5011018;28;20409;-69
2022/03/30 01:38:36;;;;;;;31.02;18.73;;;5.60;99.90;;;;;;5008876;28;20089;-69
2022/03/30 01:41:02;;;;;;;29.70;18.80;;;5.60;99.90;;;;;;5010441;28;20057;-69
2022/03/30 01:43:30;;;;;;;29.15;18.13;;;5.60;99.90;;;;;;5006563;28;20037;-69
2022/03/30 01:45:57;;;;;;;29.98;18.98;;;5.60;99.90;;;;;;5010095;28;20049;-69
2022/03/30 01:48:22;;;;;;;29.48;17.38;;;5.50;99.90;;;;;;5010197;28;20095;-68
2022/03/30 01:50:48;;;;;;;27.33;16.67;;;5.50;99.90;;;;;;5007459;28;20042;-69
2022/03/30 01:53:14;;;;;;;27.60;17.27;;;5.50;99.90;;;;;;5002633;28;20046;-69
2022/03/30 01:55:40;;;;;;;29.42;18.48;;;5.40;99.90;;;;;;5009490;28;20042;-69
2022/03/30 01:58:06;;;;;;;26.92;17.42;;;5.40;99.90;;;;;;5009960;28;20050;-69
2022/03/30 02:00:32;;;;;;;29.75;17.48;;;5.40;99.90;;;;;;5011150;28;20042;-69
2022/03/30 02:02:58;;;;;;;32.15;17.40;;;5.30;99.90;;;;;;4995809;28;20118;-69
2022/03/30 02:05:24;;;;;;;24.77;15.90;;;5.30;99.90;;;;;;5001952;28;20038;-69
2022/03/30 02:07:50;;;;;;;30.23;17.30;;;5.30;99.90;;;;;;5009458;28;20103;-69
2022/03/30 02:10:16;;;;;;;26.77;17.10;;;5.30;99.90;;;;;;5004257;28;20046;-69
2022/03/30 02:12:42;;;;;;;29.17;18.05;;;5.30;99.90;;;;;;5012257;28;20592;-69
2022/03/30 02:15:10;;;;;;;30.23;17.27;;;5.20;99.90;;;;;;5010402;28;20124;-69
2022/03/30 02:17:37;;;;;;;29.98;17.85;;;5.20;99.90;;;;;;5043340;28;20464;-69
2022/03/30 02:20:04;;;;;;;30.93;18.67;;;5.10;99.90;;;;;;5039559;28;20062;-69
2022/03/30 02:22:30;;;;;;;27.03;17.70;;;5.10;99.90;;;;;;4991733;28;20348;-69
2022/03/30 02:24:55;;;;;;;30.50;19.13;;;5.00;99.90;;;;;;5033380;28;20104;-69
2022/03/30 02:27:22;;;;;;;28.58;17.58;;;5.00;99.90;;;;;;5010945;28;20057;-69
2022/03/30 02:29:49;;;;;;;31.02;19.30;;;5.00;99.90;;;;;;4999407;28;20456;-69
2022/03/30 02:32:15;;;;;;;32.05;18.65;;;5.00;99.90;;;;;;5000856;28;20505;-69
2022/03/30 02:34:42;;;;;;;34.90;18.48;;;5.00;99.90;;;;;;4991392;28;20043;-69
2022/03/30 02:37:08;;;;;;;32.60;18.80;;;4.90;99.90;;;;;;4991254;28;20046;-69
2022/03/30 02:39:34;;;;;;;34.25;19.80;;;4.80;99.90;;;;;;5009429;28;20493;-69
2022/03/30 02:42:01;;;;;;;33.13;19.48;;;4.80;99.90;;;;;;4990494;28;20072;-69
2022/03/30 02:44:26;;;;;;;29.10;19.27;;;4.80;99.90;;;;;;4990468;28;20553;-69
2022/03/30 02:46:52;;;;;;;30.90;19.27;;;4.80;99.90;;;;;;4994947;28;20041;-68
2022/03/30 02:49:18;;;;;;;35.22;19.77;;;4.80;99.90;;;;;;4990946;28;20053;-69
2022/03/30 02:51:44;;;;;;;31.98;21.13;;;4.80;99.90;;;;;;4992058;28;20089;-69
2022/03/30 02:54:09;;;;;;;36.95;20.95;;;4.70;99.90;;;;;;5007695;28;20083;-69
2022/03/30 02:56:35;;;;;;;28.90;19.67;;;4.80;99.90;;;;;;5010830;28;20071;-69
2022/03/30 02:59:01;;;;;;;31.95;19.75;;;4.80;99.90;;;;;;5008752;28;20093;-69
2022/03/30 03:01:27;;;;;;;34.22;20.27;;;4.80;99.90;;;;;;5009343;28;20052;-69
2022/03/30 03:03:52;;;;;;;34.28;20.02;;;4.80;99.90;;;;;;5009649;28;20053;-69
2022/03/30 03:06:18;;;;;;;37.80;20.83;;;4.90;99.90;;;;;;5039301;28;20061;-69
2022/03/30 03:08:43;;;;;;;35.65;20.27;;;4.90;99.90;;;;;;5006470;28;20057;-69
2022/03/30 03:11:10;;;;;;;31.48;19.55;;;5.00;99.90;;;;;;5010525;28;20121;-69
2022/03/30 03:13:36;;;;;;;33.88;20.08;;;5.00;99.90;;;;;;5008392;28;20049;-69
2022/03/30 03:16:05;;;;;;;33.05;20.13;;;5.10;99.90;;;;;;5009737;28;20042;-68
2022/03/30 03:18:30;;;;;;;33.20;19.73;;;5.00;99.90;;;;;;4997329;28;20050;-69
2022/03/30 03:20:56;;;;;;;31.13;20.02;;;5.10;99.90;;;;;;4989384;28;20052;-69
2022/03/30 03:23:22;;;;;;;35.33;19.05;;;5.10;99.90;;;;;;5009154;28;20034;-69
2022/03/30 03:25:48;;;;;;;33.78;21.05;;;5.20;99.90;;;;;;4999773;28;20035;-69
2022/03/30 03:28:14;;;;;;;32.75;20.90;;;5.20;99.90;;;;;;5008175;28;20081;-69
2022/03/30 03:30:41;;;;;;;33.85;20.88;;;5.20;99.90;;;;;;5010456;28;20077;-69
2022/03/30 03:33:08;;;;;;;34.78;21.75;;;5.20;99.90;;;;;;5009499;28;20046;-69
2022/03/30 03:35:34;;;;;;;36.22;20.88;;;5.20;99.90;;;;;;5008023;28;20061;-68
2022/03/30 03:38:01;;;;;;;36.95;21.80;;;5.20;99.90;;;;;;5007608;28;20046;-69
2022/03/30 03:40:27;;;;;;;36.50;22.80;;;5.20;99.90;;;;;;5008712;28;20052;-69
2022/03/30 03:42:53;;;;;;;33.00;20.38;;;5.30;99.90;;;;;;5009001;28;20485;-69
2022/03/30 03:45:19;;;;;;;37.80;21.92;;;5.20;99.90;;;;;;5023066;28;20046;-69
2022/03/30 03:47:46;;;;;;;37.15;21.00;;;5.30;99.90;;;;;;5006868;28;20049;-69
2022/03/30 03:50:12;;;;;;;37.10;21.98;;;5.30;99.90;;;;;;4993606;28;20121;-69
2022/03/30 03:52:38;;;;;;;40.13;23.30;;;5.30;99.90;;;;;;5006894;28;20129;-69
2022/03/30 03:55:04;;;;;;;39.03;21.45;;;5.20;99.90;;;;;;5008244;28;20038;-69
2022/03/30 03:57:32;;;;;;;34.22;21.10;;;5.30;99.90;;;;;;5041513;28;20521;-69
2022/03/30 03:59:58;;;;;;;37.88;22.05;;;5.30;99.90;;;;;;5007180;28;20116;-69
2022/03/30 04:02:23;;;;;;;34.22;21.52;;;5.30;99.90;;;;;;5009001;28;20124;-69
2022/03/30 04:04:49;;;;;;;34.55;21.10;;;5.30;99.90;;;;;;5008114;28;20514;-69
2022/03/30 04:07:15;;;;;;;35.85;20.60;;;5.30;99.90;;;;;;5009991;28;20048;-69
2022/03/30 04:09:40;;;;;;;37.88;22.88;;;5.40;99.90;;;;;;5039017;28;20053;-69
2022/03/30 04:12:07;;;;;;;33.75;21.73;;;5.30;99.90;;;;;;5008991;28;20034;-69
2022/03/30 04:14:32;;;;;;;39.63;23.70;;;5.40;99.90;;;;;;5009295;28;20131;-69
2022/03/30 04:16:58;;;;;;;41.30;23.42;;;5.40;99.90;;;;;;5008163;28;20493;-69
2022/03/30 04:19:27;;;;;;;37.30;22.25;;;5.40;99.90;;;;;;5007980;28;20092;-68
2022/03/30 04:21:52;;;;;;;35.33;23.40;;;5.40;99.90;;;;;;5021014;28;20121;-69
2022/03/30 04:24:18;;;;;;;36.17;21.65;;;5.40;99.90;;;;;;4988250;28;20057;-69
2022/03/30 04:26:43;;;;;;;40.95;22.23;;;5.50;99.90;;;;;;4990615;28;20134;-69
2022/03/30 04:29:09;;;;;;;37.85;20.83;;;5.50;99.90;;;;;;4996744;28;20485;-69
2022/03/30 04:31:35;;;;;;;35.05;23.67;;;5.50;99.90;;;;;;4991044;28;20133;-70
2022/03/30 04:34:00;;;;;;;33.03;21.67;;;5.60;99.90;;;;;;5020962;28;20608;-69
2022/03/30 04:36:27;;;;;;;38.25;22.27;;;5.60;99.90;;;;;;4989829;28;20409;-69
2022/03/30 04:38:53;;;;;;;37.20;22.50;;;5.60;99.90;;;;;;4993046;28;20037;-69
2022/03/30 04:41:19;;;;;;;35.78;22.67;;;5.60;99.90;;;;;;5007631;28;20133;-69
2022/03/30 04:43:44;;;;;;;33.95;22.55;;;5.60;99.90;;;;;;4996716;28;20524;-69
2022/03/30 04:46:12;;;;;;;39.58;20.98;;;5.60;99.90;;;;;;4989509;28;20042;-69
2022/03/30 04:48:38;;;;;;;42.83;23.05;;;5.60;99.90;;;;;;4989341;28;20089;-69
2022/03/30 04:51:04;;;;;;;36.22;21.52;;;5.70;99.90;;;;;;5001654;28;20152;-69
2022/03/30 04:53:30;;;;;;;35.80;21.67;;;5.70;99.90;;;;;;5009343;28;20467;-69
2022/03/30 04:55:58;;;;;;;38.25;20.70;;;5.70;99.90;;;;;;5008442;28;20532;-69
2022/03/30 04:58:27;;;;;;;34.30;21.00;;;5.70;99.90;;;;;;5008355;28;20041;-69
2022/03/30 05:00:53;;;;;;;35.40;21.77;;;5.70;99.90;;;;;;4997071;28;20097;-69
2022/03/30 05:03:18;;;;;;;44.47;22.88;;;5.70;99.90;;;;;;4989446;28;20050;-69
2022/03/30 05:05:44;;;;;;;34.17;20.83;;;5.70;99.90;;;;;;4996518;28;20038;-69
2022/03/30 05:08:10;;;;;;;37.75;21.90;;;5.70;99.90;;;;;;5008930;28;20053;-69
2022/03/30 05:10:35;;;;;;;39.83;21.60;;;5.70;99.90;;;;;;4999157;28;20092;-69
2022/03/30 05:13:04;;;;;;;34.80;21.80;;;5.70;99.90;;;;;;4988196;28;20078;-69
2022/03/30 05:15:30;;;;;;;42.63;20.50;;;5.70;99.90;;;;;;4989452;28;20121;-69
2022/03/30 05:17:57;;;;;;;36.42;21.45;;;5.70;99.90;;;;;;4990539;28;20046;-69
2022/03/30 05:20:23;;;;;;;44.63;23.63;;;5.70;99.90;;;;;;4998547;28;20040;-69
2022/03/30 05:22:49;;;;;;;37.38;22.60;;;5.70;99.90;;;;;;5010627;28;20096;-69
2022/03/30 05:25:21;;;;;;;36.75;21.52;;;5.70;99.90;;;;;;5012530;28;20081;-69
2022/03/30 05:27:47;;;;;;;36.58;21.23;;;5.70;99.90;;;;;;5010728;28;20141;-69
2022/03/30 05:30:13;;;;;;;37.25;22.10;;;5.70;99.90;;;;;;5007311;28;20120;-69
2022/03/30 05:32:40;;;;;;;37.33;22.13;;;5.70;99.90;;;;;;4992927;28;20053;-68
2022/03/30 05:35:06;;;;;;;;;;;5.70;99.90;;;;;;4991984;28;20406;-69
2022/03/30 05:37:32;;;;;;;35.38;20.80;;;5.70;99.90;;;;;;4992618;28;19921;-68
2022/03/30 05:39:58;;;;;;;34.22;21.23;;;5.70;99.90;;;;;;4992275;28;20051;-69
2022/03/30 05:42:23;;;;;;;43.40;23.67;;;5.70;99.90;;;;;;4992504;28;20053;-69
2022/03/30 05:44:50;;;;;;;36.28;22.42;;;5.80;99.90;;;;;;4991574;28;20038;-69
2022/03/30 05:47:16;;;;;;;37.77;21.73;;;5.80;99.90;;;;;;5023119;28;20490;-69
2022/03/30 05:49:42;;;;;;;45.70;24.00;;;5.80;99.90;;;;;;4993497;28;20298;-69
2022/03/30 05:52:08;;;;;;;47.17;24.70;;;5.80;99.90;;;;;;4997630;28;20078;-69
2022/03/30 05:54:34;;;;;;;46.10;22.30;;;5.80;99.90;;;;;;5007167;28;20042;-70
2022/03/30 05:57:00;;;;;;;41.42;26.15;;;5.80;99.90;;;;;;4991538;28;20053;-72
2022/03/30 05:59:30;;;;;;;44.55;24.10;;;5.90;99.90;;;;;;4991842;28;20046;-69
2022/03/30 06:01:57;;;;;;;43.03;24.75;;;5.90;99.90;;;;;;5028682;28;20453;-70
2022/03/30 06:04:23;;;;;;;38.00;23.55;;;5.90;99.90;;;;;;5029856;28;20129;-68
2022/03/30 06:06:50;;;;;;;39.15;22.40;;;5.90;99.90;;;;;;4990958;28;20130;-69
2022/03/30 06:09:16;;;;;;;41.88;25.13;;;5.90;99.90;;;;;;4991377;28;20061;-69
2022/03/30 06:11:42;;;;;;;46.95;24.67;;;5.90;99.90;;;;;;5001663;28;20034;-73
2022/03/30 06:14:08;;;;;;;40.28;22.63;;;5.80;99.90;;;;;;4991100;28;20520;-70
2022/03/30 06:16:34;;;;;;;42.47;22.58;;;5.90;99.90;;;;;;4990613;28;20053;-70
2022/03/30 06:19:00;;;;;;;33.67;20.50;;;5.80;99.90;;;;;;4991094;28;20042;-70
2022/03/30 06:21:27;;;;;;;37.75;23.73;;;5.80;99.90;;;;;;5024389;28;20058;-70
2022/03/30 06:23:53;;;;;;;34.30;20.00;;;5.80;99.90;;;;;;5041467;28;20129;-69
2022/03/30 06:26:18;;;;;;;28.10;17.58;;;5.90;99.90;;;;;;4991533;28;20173;-69
2022/03/30 06:28:44;;;;;;;31.75;19.17;;;5.90;99.90;;;;;;5005252;28;20049;-69
2022/03/30 06:31:13;;;;;;;25.00;16.50;;;5.80;99.90;;;;;;4990153;28;20057;-69
2022/03/30 06:33:38;;;;;;;21.45;14.15;;;5.90;99.90;;;;;;4992245;28;20042;-69
2022/03/30 06:36:05;;;;;;;20.85;13.35;;;5.90;99.90;;;;;;4996782;28;20045;-70
2022/03/30 06:38:31;;;;;;;18.95;10.88;;;5.90;99.90;;;;;;4990477;28;20053;-70
2022/03/30 06:40:57;;;;;;;14.85;8.73;;;5.90;99.90;;;;;;5021682;28;20414;-69
2022/03/30 06:43:22;;;;;;;12.25;8.00;;;5.90;99.90;;;;;;5021435;28;20050;-69
2022/03/30 06:45:48;;;;;;;13.82;7.13;;;5.90;99.90;;;;;;5000838;28;20041;-69
2022/03/30 06:48:14;;;;;;;10.73;6.60;;;5.90;99.90;;;;;;5010452;28;20050;-69
2022/03/30 06:50:39;;;;;;;10.82;6.20;;;6.00;99.90;;;;;;5007202;28;20045;-70
2022/03/30 06:53:09;;;;;;;8.45;5.93;;;6.00;99.90;;;;;;5024756;28;20156;-69
2022/03/30 06:55:37;;;;;;;8.45;4.95;;;6.00;99.90;;;;;;5001513;28;20093;-69
2022/03/30 06:58:02;;;;;;;8.70;4.95;;;6.00;99.90;;;;;;5020969;28;20547;-70
2022/03/30 07:00:28;;;;;;;5.95;3.70;;;6.00;99.90;;;;;;4994003;28;20125;-69
2022/03/30 07:02:54;;;;;;;7.32;4.28;;;6.00;99.90;;;;;;5005837;28;20100;-69
2022/03/30 07:05:19;;;;;;;7.95;4.10;;;6.00;99.90;;;;;;5008183;28;20384;-69
2022/03/30 07:10:31;;;;;;;7.15;4.15;;;6.00;99.90;;;;;;5010328;28;20375;-69
2022/03/30 07:12:57;;;;;;;5.80;3.85;;;6.00;99.90;;;;;;5008754;28;20042;-69
2022/03/30 07:15:23;;;;;;;4.68;3.38;;;6.00;99.90;;;;;;5008468;28;20054;-69
2022/03/30 07:17:51;;;;;;;4.20;3.38;;;6.00;99.90;;;;;;5036110;28;20057;-69
2022/03/30 07:20:18;;;;;;;4.25;3.20;;;6.10;99.90;;;;;;5007530;28;20082;-70
2022/03/30 07:22:45;;;;;;;3.85;3.35;;;6.10;99.90;;;;;;5008860;28;20042;-69
2022/03/30 07:25:11;;;;;;;3.15;2.80;;;6.20;99.90;;;;;;5041216;28;20117;-69
2022/03/30 07:27:45;;;;;;;3.58;1.83;;;6.30;99.90;;;;;;5006771;28;20081;-69
2022/03/30 07:30:12;;;;;;;4.35;2.35;;;6.50;99.90;;;;;;5008427;28;20042;-69
2022/03/30 07:32:40;;;;;;;5.10;2.90;;;6.50;99.90;;;;;;4995906;28;20053;-70
2022/03/30 07:35:10;;;;;;;3.70;2.60;;;6.50;99.90;;;;;;4990192;28;20078;-69
2022/03/30 07:37:37;;;;;;;3.38;2.40;;;6.60;99.90;;;;;;4989902;28;20046;-73
2022/03/30 07:40:06;;;;;;;2.38;2.08;;;6.50;99.90;;;;;;5024335;28;20066;-72
2022/03/30 07:42:32;;;;;;;3.17;2.30;;;6.50;99.90;;;;;;5002575;28;20057;-73
2022/03/30 07:44:57;;;;;;;4.38;2.75;;;6.50;99.90;;;;;;5001953;28;20088;-73
2022/03/30 07:47:25;;;;;;;4.60;2.92;;;6.50;99.90;;;;;;5027772;28;20544;-73
2022/03/30 07:49:51;;;;;;;3.92;2.97;;;6.50;99.90;;;;;;4989769;28;20096;-72
2022/03/30 07:52:16;;;;;;;6.38;2.50;;;6.60;99.90;;;;;;5029640;28;20042;-72
2022/03/30 07:54:42;;;;;;;3.13;1.90;;;6.60;99.90;;;;;;4998461;28;20049;-73
2022/03/30 07:57:09;;;;;;;6.28;2.10;;;6.70;99.90;;;;;;5009444;28;20045;-72
2022/03/30 07:59:35;;;;;;;4.30;2.22;;;6.70;99.90;;;;;;5007889;28;20049;-72
2022/03/30 08:02:00;;;;;;;3.13;2.08;;;6.60;99.90;;;;;;5040080;28;20437;-72
2022/03/30 08:04:26;;;;;;;2.22;2.00;;;6.60;99.90;;;;;;5009583;28;20044;-73
2022/03/30 08:06:52;;;;;;;2.60;2.03;;;6.60;99.90;;;;;;5007912;28;20374;-71
2022/03/30 08:09:18;;;;;;;3.00;2.30;;;6.60;99.90;;;;;;5000490;28;20040;-74
2022/03/30 08:11:44;;;;;;;3.95;2.40;;;6.60;99.90;;;;;;5021226;28;20516;-72
2022/03/30 08:14:11;;;;;;;4.80;1.80;;;6.60;99.90;;;;;;4989598;28;20050;-72
2022/03/30 08:16:37;;;;;;;2.50;1.90;;;6.60;99.90;;;;;;5009039;28;20045;-71
2022/03/30 08:19:02;;;;;;;2.30;1.60;;;6.60;99.90;;;;;;5009052;28;20397;-70
2022/03/30 08:24:12;;;;;;;3.45;1.65;;;6.60;99.90;;;;;;5004585;28;20053;-74
2022/03/30 08:26:39;;;;;;;1.98;1.50;;;6.60;99.90;;;;;;5007171;28;20424;-73
2022/03/30 08:29:08;;;;;;;1.73;1.57;;;6.70;99.90;;;;;;5007429;28;20428;-73
2022/03/30 08:31:36;;;;;;;2.10;1.45;;;6.70;99.90;;;;;;4989666;28;20278;-73
2022/03/30 08:34:02;;;;;;;2.00;1.45;;;6.70;99.90;;;;;;5031001;28;20470;-74
2022/03/30 08:36:31;;;;;;;1.55;1.30;;;6.60;99.90;;;;;;5019921;28;20054;-72
2022/03/30 08:38:58;;;;;;;1.73;1.38;;;6.60;99.90;;;;;;4987338;28;20555;-72
2022/03/30 08:41:25;;;;;;;2.92;1.50;;;6.60;99.90;;;;;;5000813;28;20131;-72
2022/03/30 08:43:51;;;;;;;2.80;1.35;;;6.60;99.90;;;;;;5038919;28;20058;-73
2022/03/30 08:46:17;;;;;;;1.48;1.38;;;6.60;99.90;;;;;;5007220;28;20125;-72
2022/03/30 08:48:43;;;;;;;2.88;1.60;;;6.60;99.90;;;;;;5001992;28;20149;-73
2022/03/30 08:51:10;;;;;;;2.10;1.50;;;6.60;99.90;;;;;;5021939;28;20037;-72
2022/03/30 08:53:37;;;;;;;2.67;1.40;;;6.70;99.90;;;;;;5000447;28;20568;-73
2022/03/30 08:56:03;;;;;;;1.90;1.50;;;6.70;99.90;;;;;;5010327;28;20403;-73
2022/03/30 08:58:29;;;;;;;3.78;1.67;;;6.80;99.90;;;;;;5011526;28;20042;-73
2022/03/30 09:01:09;;;;;;;1.98;1.30;;;6.80;99.90;;;;;;5004638;28;20129;-80
2022/03/30 09:03:35;;;;;;;2.10;1.40;;;6.80;99.90;;;;;;5011100;28;20124;-80
2022/03/30 09:06:03;;;;;;;1.20;1.10;;;6.80;99.90;;;;;;4999090;28;20090;-79
2022/03/30 09:08:29;;;;;;;1.27;0.98;;;6.90;99.90;;;;;;4992780;28;20073;-78
2022/03/30 09:10:58;;;;;;;1.40;1.10;;;6.90;99.90;;;;;;5028086;28;20074;-80
2022/03/30 09:13:23;;;;;;;1.90;1.20;;;7.00;99.90;;;;;;5011933;28;20392;-72
2022/03/30 09:15:51;;;;;;;3.40;1.13;;;7.00;99.90;;;;;;5002704;28;20038;-72
2022/03/30 09:18:17;;;;;;;1.55;1.40;;;7.10;99.90;;;;;;5012861;28;20628;-72
2022/03/30 09:20:46;;;;;;;2.05;1.20;;;7.10;99.90;;;;;;5006708;28;20078;-72
2022/03/30 09:23:14;;;;;;;1.52;1.10;;;7.10;99.90;;;;;;5001763;28;20042;-72
2022/03/30 09:25:44;;;;;;;1.60;1.20;;;7.20;99.90;;;;;;5000597;28;20046;-72
2022/03/30 09:28:10;;;;;;;1.23;1.08;;;7.30;99.90;;;;;;4991223;28;20050;-73
2022/03/30 09:30:36;;;;;;;1.95;0.98;;;7.30;99.90;;;;;;4991344;28;20485;-72
2022/03/30 09:33:07;;;;;;;2.20;1.35;;;7.30;99.90;;;;;;5009122;28;20520;-73
2022/03/30 09:35:38;;;;;;;2.45;1.23;;;7.30;99.90;;;;;;5009366;28;20073;-71
2022/03/30 09:38:03;;;;;;;3.00;1.48;;;7.30;99.90;;;;;;5010232;28;20185;-71
2022/03/30 09:41:03;;;;;;;2.05;1.25;;;7.30;99.90;;;;;;5009596;28;20066;-71
2022/03/30 09:43:33;;;;;;;2.83;1.30;;;7.30;99.90;;;;;;5010031;28;20096;-72
2022/03/30 09:46:04;;;;;;;2.85;1.38;;;7.30;99.90;;;;;;5011354;28;20057;-71
2022/03/30 09:48:32;;;;;;;3.55;1.50;;;7.30;99.90;;;;;;5041212;28;20477;-74
2022/03/30 09:50:58;;;;;;;;;;;7.50;99.90;;;;;;4996807;28;20042;-69
2022/03/30 09:53:28;;;;;;;3.85;1.75;;;7.50;99.90;;;;;;5010105;28;19975;-69
2022/03/30 09:56:01;;;;;;;2.42;1.65;;;7.60;99.90;;;;;;5008216;28;20495;-69
2022/03/30 09:58:36;;;;;;;3.47;1.33;;;7.70;99.90;;;;;;5009195;28;20041;-69
2022/03/30 10:01:13;;;;;;;3.30;1.50;;;7.70;99.90;;;;;;4996490;28;20042;-69
2022/03/30 10:03:50;;;;;;;2.67;1.70;;;7.80;99.90;;;;;;4990864;28;20074;-69
2022/03/30 10:06:18;;;;;;;4.47;1.70;;;7.80;99.90;;;;;;4998844;28;20477;-69
2022/03/30 10:08:48;;;;;;;4.35;1.70;;;7.80;99.90;;;;;;5009773;28;20120;-69
2022/03/30 10:11:17;;;;;;;5.10;1.70;;;7.90;99.90;;;;;;5037446;28;20042;-69
2022/03/30 10:13:46;;;;;;;4.80;1.70;;;7.90;99.90;;;;;;4991822;28;20053;-69
2022/03/30 10:16:13;;;;;;;3.70;1.70;;;8.00;99.90;;;;;;5008085;28;20034;-69
2022/03/30 10:18:39;;;;;;;5.60;1.92;;;8.00;99.90;;;;;;5011211;28;20093;-69
2022/03/30 10:21:37;;;;;;;4.30;1.77;;;8.20;99.90;;;;;;5009879;28;20060;-70
2022/03/30 10:24:33;;;;;;;4.15;1.60;;;8.30;99.90;;;;;;5008673;28;20448;-69
2022/03/30 10:27:20;;;;;;;3.75;1.40;;;8.50;99.90;;;;;;5005181;28;20057;-73
2022/03/30 10:29:53;;;;;;;2.88;1.48;;;8.50;99.90;;;;;;4994295;28;20371;-71
2022/03/30 10:32:24;;;;;;;3.00;1.33;;;8.40;99.90;;;;;;5000044;28;20192;-74
2022/03/30 10:34:53;;;;;;;3.55;1.30;;;8.40;99.90;;;;;;5002302;28;20046;-72
2022/03/30 10:37:27;;;;;;;2.97;1.48;;;8.40;99.90;;;;;;5026670;28;20700;-73
2022/03/30 10:39:55;;;;;;;3.13;1.40;;;8.40;99.90;;;;;;4995746;28;20405;-76
2022/03/30 10:42:21;;;;;;;4.05;1.63;;;8.50;99.90;;;;;;5006969;28;20050;-74
2022/03/30 10:44:49;;;;;;;4.38;1.60;;;8.50;99.90;;;;;;5040806;28;20556;-77
2022/03/30 10:47:18;;;;;;;3.65;1.50;;;8.50;99.90;;;;;;5004069;28;20065;-74
2022/03/30 10:49:52;;;;;;;5.97;1.52;;;8.40;99.90;;;;;;4995560;28;20038;-78
2022/03/30 10:52:25;;;;;;;4.35;1.70;;;8.40;99.90;;;;;;4993960;28;20050;-75
2022/03/30 10:54:55;;;;;;;8.05;1.50;;;8.50;99.90;;;;;;4999759;28;20508;-74
2022/03/30 10:57:43;;;;;;;2.50;1.10;;;8.50;99.90;;;;;;5008288;28;20065;-74
2022/03/30 11:00:18;;;;;;;2.95;1.30;;;8.40;99.30;;;;;;5007741;28;20497;-76
2022/03/30 11:02:45;;;;;;;4.50;1.58;;;8.40;99.10;;;;;;5009580;28;20053;-75
2022/03/30 11:05:13;;;;;;;3.97;1.33;;;8.40;99.90;;;;;;5009892;28;20537;-73
2022/03/30 11:07:40;;;;;;;3.53;1.48;;;8.40;99.90;;;;;;5001312;28;20077;-76
2022/03/30 11:10:44;;;;;;;2.60;1.30;;;8.40;99.90;;;;;;5005118;28;20049;-74
2022/03/30 11:13:12;;;;;;;4.35;1.60;;;8.50;99.90;;;;;;4992487;28;20562;-75
2022/03/30 11:15:58;;;;;;;2.13;1.30;;;8.60;99.90;;;;;;4993113;28;20043;-73
2022/03/30 11:18:24;;;;;;;3.28;1.27;;;8.80;99.90;;;;;;4994215;28;20065;-74
2022/03/30 11:21:08;;;;;;;3.30;1.40;;;8.90;99.90;;;;;;5007582;28;20664;-73
2022/03/30 11:23:37;;;;;;;2.95;1.55;;;8.90;99.90;;;;;;4996854;28;20042;-73
2022/03/30 11:26:06;;;;;;;4.22;1.30;;;8.90;99.00;;;;;;4991147;28;20046;-73
2022/03/30 11:28:37;;;;;;;3.70;1.45;;;8.90;98.10;;;;;;4989101;28;20054;-73
2022/03/30 11:31:04;;;;;;;2.33;1.20;;;8.90;99.30;;;;;;4990283;28;20096;-73
2022/03/30 11:33:32;;;;;;;2.00;1.23;;;9.00;98.60;;;;;;4989299;28;20053;-73
2022/03/30 11:36:00;;;;;;;3.05;1.40;;;9.00;98.50;;;;;;5021348;28;20081;-73
2022/03/30 11:38:32;;;;;;;4.22;1.48;;;9.00;98.10;;;;;;5006284;28;20482;-71
2022/03/30 11:41:05;;;;;;;2.92;1.30;;;8.90;98.70;;;;;;5005307;28;20062;-72
2022/03/30 11:45:12;;;;;;;3.80;1.40;;;8.90;97.90;;;;;;5008823;28;20050;-72
2022/03/30 11:46:30;;;;;;;2.95;1.60;;;8.80;98.00;;;;;;5000028;28;20046;-71
2022/03/30 11:49:06;;;;;;;3.20;1.58;;;8.70;97.80;;;;;;5007516;28;20180;-73
2022/03/30 11:51:32;;;;;;;2.20;1.40;;;8.70;99.90;;;;;;5008531;28;20046;-75
2022/03/30 11:54:11;;;;;;;2.65;1.45;;;8.70;99.90;;;;;;5007457;28;20492;-74
2022/03/30 11:56:36;;;;;;;2.30;1.60;;;8.60;99.80;;;;;;5040777;28;20042;-74
2022/03/30 11:59:02;;;;;;;3.05;1.50;;;8.60;99.90;;;;;;5008837;28;20467;-74
2022/03/30 12:01:28;;;;;;;3.28;1.75;;;8.60;99.90;;;;;;5005793;28;20038;-73
2022/03/30 12:03:55;;;;;;;3.90;1.60;;;8.50;99.90;;;;;;5004959;28;20053;-72
2022/03/30 12:06:21;;;;;;;1.92;1.45;;;8.50;99.90;;;;;;5004162;28;20042;-74
2022/03/30 12:08:50;;;;;;;3.38;1.60;;;8.60;99.90;;;;;;4995121;28;20149;-74
2022/03/30 12:11:27;;;;;;;3.60;1.95;;;8.60;99.40;;;;;;4996296;28;20042;-74
2022/03/30 12:13:55;;;;;;;4.57;1.58;;;8.60;98.80;;;;;;4988703;28;20054;-74
2022/03/30 12:16:23;;;;;;;2.45;1.55;;;8.70;98.90;;;;;;4997450;28;20044;-75
2022/03/30 12:18:55;;;;;;;2.65;1.65;;;8.80;98.40;;;;;;5007526;28;20095;-75
2022/03/30 12:21:23;;;;;;;4.60;1.85;;;8.80;98.10;;;;;;5005010;28;20092;-75
2022/03/30 12:23:53;;;;;;;5.82;1.70;;;8.70;98.10;;;;;;5008068;28;20049;-74
2022/03/30 12:26:18;;;;;;;2.28;1.67;;;8.70;96.80;;;;;;5040482;28;20042;-72
2022/03/30 12:28:44;;;;;;;2.05;1.73;;;8.70;95.30;;;;;;5011336;28;20137;-76
2022/03/30 12:31:10;;;;;;;4.75;1.90;;;8.60;95.90;;;;;;5012184;28;20572;-75
2022/03/30 12:33:48;;;;;;;3.43;1.97;;;8.60;97.00;;;;;;5012134;28;20497;-75
2022/03/30 12:36:20;;;;;;;3.75;2.33;;;8.60;95.60;;;;;;5011174;28;20061;-78
2022/03/30 12:38:50;;;;;;;5.32;2.75;;;8.50;98.70;;;;;;4990993;28;20050;-78
2022/03/30 12:41:23;;;;;;;3.25;2.92;;;8.50;99.90;;;;;;4994077;28;20089;-74
2022/03/30 12:43:57;;;;;;;5.28;2.80;;;8.50;99.90;;;;;;4995064;28;20045;-76
2022/03/30 12:46:23;;;;;;;3.33;2.53;;;8.40;99.90;;;;;;5006158;28;20039;-76
2022/03/30 12:48:49;;;;;;;3.65;2.40;;;8.40;99.90;;;;;;5049903;28;20052;-77
2022/03/30 12:51:19;;;;;;;3.78;2.40;;;8.40;99.90;;;;;;5005879;28;20078;-79
2022/03/30 12:53:48;;;;;;;2.97;1.92;;;8.50;99.90;;;;;;4996804;28;20050;-77
2022/03/30 12:56:17;;;;;;;5.13;2.10;;;8.50;99.80;;;;;;5027428;28;20486;-77
2022/03/30 12:58:53;;;;;;;3.47;2.00;;;8.50;99.70;;;;;;5006215;28;20050;-81